Time;durP1;ratioP1;P1;durP2;ratioP2;P2;SDS_P1;SDS_P2;PMS_P1;PMS_P2;Temp;Humidity;BMP_temperature;BMP_pressure;BME280_temperature;BME280_humidity;BME280_pressure;Samples;Min_cycle;Max_cycle;Signal;HPM_P1;HPM_P2
2023/06/09 03:03:39;;;;;;;11.23;3.85;;;;;;;13.91;77.78;101540.31;3555406;28;20142;-69
2023/06/09 03:06:07;;;;;;;7.88;3.25;;;;;;;13.86;78.19;101541.44;4937354;29;20401;-69
2023/06/09 03:08:33;;;;;;;9.03;3.27;;;;;;;13.82;78.07;101541.59;4942412;29;20095;-69
2023/06/09 03:10:58;;;;;;;7.68;3.35;;;;;;;13.74;77.85;101534.94;4942561;29;20027;-69
2023/06/09 03:13:23;;;;;;;12.63;2.88;;;;;;;13.69;77.87;101539.53;4956467;29;20050;-69
2023/06/09 03:15:50;;;;;;;8.63;3.15;;;;;;;13.73;77.43;101539.34;4961339;29;20320;-69
2023/06/09 03:18:16;;;;;;;7.10;3.00;;;;;;;13.72;77.48;101532.38;4961151;29;20027;-69
2023/06/09 03:20:42;;;;;;;11.38;3.70;;;;;;;13.73;77.11;101536.69;4924202;29;20091;-69
2023/06/09 03:23:08;;;;;;;6.43;3.40;;;;;;;13.74;76.71;101538.44;4926243;29;20264;-69
2023/06/09 03:25:34;;;;;;;9.27;3.30;;;;;;;13.69;76.45;101529.03;4937835;29;20457;-69
2023/06/09 03:28:00;;;;;;;7.53;3.30;;;;;;;13.60;76.66;101532.88;4951588;29;20042;-69
2023/06/09 03:30:26;;;;;;;10.15;3.60;;;;;;;13.63;76.48;101544.16;4942493;29;20043;-69
2023/06/09 03:32:51;;;;;;;10.27;2.97;;;;;;;13.70;76.71;101550.00;4941800;29;20120;-69
2023/06/09 03:35:17;;;;;;;7.10;3.80;;;;;;;13.59;76.83;101547.84;4939689;29;20286;-69
2023/06/09 03:37:42;;;;;;;7.40;3.17;;;;;;;13.60;76.29;101539.00;4948782;29;20321;-69
2023/06/09 03:40:09;;;;;;;10.02;3.60;;;;;;;13.68;76.21;101532.56;4939150;29;20055;-69
2023/06/09 03:42:34;;;;;;;7.68;3.60;;;;;;;13.59;76.16;101539.94;4947995;29;20043;-69
2023/06/09 03:45:00;;;;;;;9.35;3.55;;;;;;;13.65;76.29;101543.25;4932663;29;20047;-69
2023/06/09 03:47:26;;;;;;;9.07;3.50;;;;;;;13.61;75.82;101537.25;4924503;29;20035;-69
2023/06/09 03:49:51;;;;;;;6.35;2.88;;;;;;;13.58;75.92;101532.94;4928820;29;20130;-69
2023/06/09 03:52:16;;;;;;;9.55;3.40;;;;;;;13.61;75.94;101540.72;4937100;29;20035;-69
2023/06/09 03:54:42;;;;;;;8.75;3.33;;;;;;;13.59;75.76;101537.31;4943885;29;20111;-69
2023/06/09 03:57:07;;;;;;;10.57;3.53;;;;;;;13.63;75.41;101535.41;4942837;29;20060;-69
2023/06/09 03:59:33;;;;;;;10.18;3.20;;;;;;;13.62;75.44;101523.16;4951357;29;20038;-69
2023/06/09 04:01:58;;;;;;;9.50;3.38;;;;;;;13.61;75.53;101526.72;4925103;29;20070;-69
2023/06/09 04:04:24;;;;;;;9.65;3.33;;;;;;;13.65;75.31;101538.81;4933545;29;20242;-69
2023/06/09 04:06:49;;;;;;;8.95;3.45;;;;;;;13.61;75.00;101530.19;4941544;29;20334;-69
2023/06/09 04:09:15;;;;;;;6.80;3.38;;;;;;;13.56;75.07;101528.69;4938045;29;20119;-69
2023/06/09 04:11:41;;;;;;;10.90;3.65;;;;;;;13.53;75.06;101532.28;4938034;29;20418;-69
2023/06/09 04:14:06;;;;;;;11.02;3.83;;;;;;;13.56;75.52;101526.06;4944048;29;20352;-69
2023/06/09 04:16:32;;;;;;;8.15;3.42;;;;;;;13.50;75.82;101532.44;4942486;29;20066;-69
2023/06/09 04:18:58;;;;;;;7.05;3.42;;;;;;;13.49;75.76;101532.50;4940522;29;20083;-69
2023/06/09 04:21:23;;;;;;;8.00;4.10;;;;;;;13.49;76.00;101530.72;4942891;29;20067;-69
2023/06/09 04:23:49;;;;;;;8.95;3.83;;;;;;;13.53;75.25;101531.44;4954970;29;20051;-69
2023/06/09 04:26:14;;;;;;;12.52;4.20;;;;;;;13.58;75.29;101545.25;4961494;29;20310;-69
2023/06/09 04:28:40;;;;;;;12.60;4.35;;;;;;;13.54;75.49;101548.94;4960794;29;20204;-69
2023/06/09 04:31:08;;;;;;;9.32;3.53;;;;;;;13.51;75.91;101546.44;4961386;29;20153;-69
2023/06/09 04:33:36;;;;;;;10.30;3.60;;;;;;;13.46;76.13;101553.66;4953370;29;20330;-69
2023/06/09 04:36:03;;;;;;;9.43;3.80;;;;;;;13.54;76.02;101556.84;4960578;29;20063;-69
2023/06/09 04:38:32;;;;;;;9.98;4.18;;;;;;;13.51;75.81;101547.28;4960758;29;20035;-69
2023/06/09 04:41:01;;;;;;;8.63;3.70;;;;;;;13.52;76.07;101549.00;4937898;29;20075;-69
2023/06/09 04:43:27;;;;;;;13.20;4.43;;;;;;;13.50;76.28;101553.47;4932443;29;20092;-69
2023/06/09 04:45:55;;;;;;;9.80;4.43;;;;;;;13.61;75.83;101547.78;4930257;29;20350;-69
2023/06/09 04:48:21;;;;;;;6.60;3.87;;;;;;;13.61;76.36;101545.16;4939861;29;20045;-69
2023/06/09 04:50:47;;;;;;;10.20;4.00;;;;;;;13.58;76.60;101548.75;4934086;29;20283;-69
2023/06/09 04:53:15;;;;;;;10.32;4.03;;;;;;;13.58;76.39;101550.53;4930302;29;20214;-69
2023/06/09 04:55:40;;;;;;;10.60;4.25;;;;;;;13.62;76.54;101549.47;4939815;29;20346;-69
2023/06/09 04:58:07;;;;;;;10.43;4.38;;;;;;;13.56;76.64;101555.00;4944844;29;20078;-69
2023/06/09 05:00:33;;;;;;;8.10;4.13;;;;;;;13.59;76.70;101552.25;4941464;29;20043;-69
2023/06/09 05:02:59;;;;;;;9.50;3.97;;;;;;;13.51;77.17;101547.28;4943505;29;20049;-69
2023/06/09 05:05:25;;;;;;;8.80;3.72;;;;;;;13.52;77.35;101546.38;4922915;29;20349;-69
2023/06/09 05:07:51;;;;;;;13.00;4.65;;;;;;;13.55;77.40;101548.88;4928361;29;20051;-69
2023/06/09 05:10:17;;;;;;;8.98;3.85;;;;;;;13.62;77.22;101552.97;4926892;29;20148;-69
2023/06/09 05:12:42;;;;;;;10.60;4.30;;;;;;;13.67;77.58;101547.50;4940548;29;20039;-69
2023/06/09 05:15:08;;;;;;;23.30;5.85;;;;;;;13.74;77.23;101550.75;4924437;29;20047;-69
2023/06/09 05:17:36;;;;;;;18.30;5.22;;;;;;;13.72;77.12;101558.69;4923088;29;20058;-69
2023/06/09 05:20:05;;;;;;;7.33;4.10;;;;;;;13.77;77.41;101562.00;4935634;29;20099;-69
2023/06/09 05:22:31;;;;;;;9.00;3.88;;;;;;;13.79;77.86;101572.47;4952407;29;20337;-69
2023/06/09 05:24:57;;;;;;;6.82;4.07;;;;;;;13.77;77.86;101569.03;4939265;29;20032;-69
2023/06/09 05:27:22;;;;;;;12.60;4.13;;;;;;;13.83;77.83;101561.72;4941197;29;20057;-69
2023/06/09 05:29:48;;;;;;;10.55;4.47;;;;;;;13.74;78.22;101572.66;4941975;29;20035;-69
2023/06/09 05:32:13;;;;;;;13.82;4.95;;;;;;;13.78;77.83;101562.84;4940357;29;20039;-69
2023/06/09 05:34:39;;;;;;;13.85;5.10;;;;;;;13.81;78.32;101560.09;4955061;29;20047;-69
2023/06/09 05:37:04;;;;;;;13.73;4.38;;;;;;;13.81;78.53;101570.63;4941034;29;20039;-69
2023/06/09 05:39:30;;;;;;;16.20;4.55;;;;;;;13.87;78.58;101565.09;4944362;29;20046;-69
2023/06/09 05:41:56;;;;;;;15.82;4.35;;;;;;;13.95;78.56;101559.47;4950659;29;20051;-69
2023/06/09 05:44:21;;;;;;;13.82;4.90;;;;;;;13.97;79.04;101570.78;4945652;29;20038;-69
2023/06/09 05:46:47;;;;;;;15.73;5.00;;;;;;;14.01;79.27;101557.44;4949369;29;20042;-69
2023/06/09 05:49:12;;;;;;;15.98;5.18;;;;;;;14.03;80.16;101557.38;4955530;29;20043;-69
2023/06/09 05:51:37;;;;;;;19.23;5.57;;;;;;;14.09;80.20;101564.16;4956256;29;20093;-69
2023/06/09 05:54:03;;;;;;;18.88;5.45;;;;;;;14.05;81.22;101562.59;4943771;29;20048;-69
2023/06/09 05:56:29;;;;;;;14.93;4.47;;;;;;;14.07;81.65;101563.38;4938029;29;20114;-69
2023/06/09 05:59:02;;;;;;;18.08;5.93;;;;;;;14.04;83.11;101564.34;4937879;29;20046;-69
2023/06/09 06:01:27;;;;;;;11.77;4.95;;;;;;;14.08;82.77;101559.78;4935872;29;20062;-69
2023/06/09 06:03:53;;;;;;;19.35;5.10;;;;;;;14.15;82.96;101561.25;4938420;29;20586;-69
2023/06/09 06:06:19;;;;;;;13.30;5.47;;;;;;;14.22;82.57;101567.94;4938714;29;20043;-69
2023/06/09 06:08:44;;;;;;;32.78;5.90;;;;;;;14.25;82.94;101561.72;4940527;29;20027;-70
2023/06/09 06:11:09;;;;;;;16.15;5.45;;;;;;;14.26;83.50;101560.75;4944036;29;20107;-70
2023/06/09 06:13:35;;;;;;;13.10;4.75;;;;;;;14.27;82.81;101555.44;4943095;29;20039;-70
2023/06/09 06:16:00;;;;;;;14.00;6.03;;;;;;;14.36;83.02;101560.28;4937358;29;20110;-70
2023/06/09 06:18:26;;;;;;;11.95;5.50;;;;;;;14.46;82.80;101554.59;4943052;29;20286;-70
2023/06/09 06:20:51;;;;;;;19.48;5.82;;;;;;;14.48;83.13;101556.25;4938303;29;20103;-70
2023/06/09 06:23:17;;;;;;;11.77;5.57;;;;;;;14.49;83.02;101557.94;4939940;29;20044;-70
2023/06/09 06:25:42;;;;;;;17.25;6.05;;;;;;;14.53;83.04;101561.31;4931134;29;20040;-70
2023/06/09 06:28:09;;;;;;;17.60;5.38;;;;;;;14.57;82.71;101557.59;4938146;29;20303;-69
2023/06/09 06:30:37;;;;;;;19.23;5.88;;;;;;;14.59;82.39;101551.38;4940155;29;20222;-70
2023/06/09 06:33:04;;;;;;;17.38;6.05;;;;;;;14.59;83.28;101558.44;4942797;29;20046;-70
2023/06/09 06:35:30;;;;;;;17.63;5.72;;;;;;;14.64;83.05;101561.69;4940727;29;20373;-70
2023/06/09 06:37:56;;;;;;;13.55;5.57;;;;;;;14.63;83.25;101560.00;4938885;29;20035;-70
2023/06/09 06:40:22;;;;;;;18.77;6.30;;;;;;;14.70;83.68;101565.84;4940749;29;20222;-69
2023/06/09 06:42:49;;;;;;;13.77;6.32;;;;;;;14.77;83.19;101567.25;4941475;29;20046;-70
2023/06/09 06:45:15;;;;;;;15.43;5.85;;;;;;;14.82;83.42;101567.03;4941959;29;20041;-69
2023/06/09 06:47:45;;;;;;;20.23;6.18;;;;;;;14.90;83.07;101562.28;4942180;29;20106;-69
2023/06/09 06:50:13;;;;;;;17.23;6.30;;;;;;;14.97;83.01;101563.66;4935181;29;20267;-70
2023/06/09 06:52:39;;;;;;;16.05;6.35;;;;;;;15.02;82.64;101559.03;4940303;29;20048;-70
2023/06/09 06:55:08;;;;;;;17.50;6.13;;;;;;;15.10;82.24;101564.81;4951319;29;20032;-70
2023/06/09 06:57:38;;;;;;;20.85;6.40;;;;;;;15.13;82.95;101559.41;4947676;29;20027;-70
2023/06/09 07:00:14;;;;;;;18.05;6.53;;;;;;;15.19;82.31;101562.63;4947226;29;20329;-70
2023/06/09 07:02:46;;;;;;;26.73;6.88;;;;;;;15.34;82.07;101559.28;4942116;29;20381;-70
2023/06/09 07:05:12;;;;;;;15.25;6.30;;;;;;;15.46;81.37;101558.66;4951183;29;20083;-70
2023/06/09 07:07:38;;;;;;;15.07;7.18;;;;;;;15.53;81.05;101565.34;4947982;29;20378;-70
2023/06/09 07:10:04;;;;;;;15.70;6.57;;;;;;;15.65;80.25;101561.22;4957648;29;20043;-70
2023/06/09 07:12:30;;;;;;;15.90;6.60;;;;;;;15.77;79.87;101557.16;4949766;29;20306;-70
2023/06/09 07:14:58;;;;;;;16.58;7.03;;;;;;;15.85;79.92;101564.69;4948143;29;20086;-70
2023/06/09 07:17:23;;;;;;;14.43;6.97;;;;;;;15.92;79.02;101564.28;4941164;29;20306;-70
2023/06/09 07:19:48;;;;;;;13.75;6.50;;;;;;;15.99;79.08;101571.88;4936640;29;20034;-70
2023/06/09 07:22:14;;;;;;;13.07;6.93;;;;;;;16.05;79.36;101559.22;4940385;29;20229;-70
2023/06/09 07:24:39;;;;;;;7.93;5.72;;;;;;;16.17;78.58;101568.31;4940134;29;20035;-70
2023/06/09 07:27:05;;;;;;;13.75;6.68;;;;;;;16.24;78.32;101559.09;4949123;29;20051;-70
2023/06/09 07:29:31;;;;;;;27.83;7.28;;;;;;;16.31;78.69;101562.25;4947934;29;20091;-70
2023/06/09 07:31:56;;;;;;;21.40;7.60;;;;;;;16.41;78.32;101563.50;4942083;29;20070;-70
2023/06/09 07:34:26;;;;;;;16.77;6.70;;;;;;;16.51;78.03;101569.13;4949463;29;20027;-70
2023/06/09 07:36:53;;;;;;;14.52;7.00;;;;;;;16.63;77.46;101563.19;4950965;29;20054;-70
2023/06/09 07:39:19;;;;;;;10.50;6.43;;;;;;;16.69;77.47;101561.97;4950727;29;20354;-70
2023/06/09 07:41:44;;;;;;;14.80;6.90;;;;;;;16.80;77.10;101564.03;4949317;29;20243;-70
2023/06/09 07:44:10;;;;;;;14.07;7.15;;;;;;;16.85;76.44;101562.88;4943196;29;20106;-70
2023/06/09 07:46:35;;;;;;;18.23;6.97;;;;;;;16.89;77.12;101563.56;4935061;29;20044;-70
2023/06/09 07:49:01;;;;;;;12.88;7.00;;;;;;;17.00;77.48;101563.81;4931156;29;20614;-70
2023/06/09 07:51:27;;;;;;;10.98;6.90;;;;;;;17.10;77.44;101565.94;4939893;29;20267;-70
2023/06/09 07:53:52;;;;;;;16.42;7.30;;;;;;;17.17;77.48;101572.59;4945838;29;20083;-70
2023/06/09 07:56:18;;;;;;;17.45;7.38;;;;;;;17.25;76.62;101567.72;4941123;29;20051;-70
2023/06/09 07:58:43;;;;;;;10.52;7.38;;;;;;;17.33;76.57;101568.13;4937662;29;20043;-70
2023/06/09 08:01:09;;;;;;;14.85;6.97;;;;;;;17.41;75.89;101573.00;4939432;29;20287;-70
2023/06/09 08:03:35;;;;;;;10.02;6.63;;;;;;;17.52;76.01;101565.28;4937327;29;20047;-70
2023/06/09 08:06:02;;;;;;;15.35;8.45;;;;;;;17.61;75.72;101567.38;4939892;29;20326;-70
2023/06/09 08:08:28;;;;;;;13.73;7.78;;;;;;;17.68;75.60;101564.34;4939941;29;20062;-70
2023/06/09 08:10:54;;;;;;;17.95;8.73;;;;;;;17.78;76.32;101566.38;4944800;29;20051;-70
2023/06/09 08:13:20;;;;;;;14.77;8.45;;;;;;;17.87;75.61;101558.88;4942366;29;20230;-70
2023/06/09 08:15:45;;;;;;;15.98;8.73;;;;;;;17.96;75.67;101563.59;4945157;29;20074;-70
2023/06/09 08:18:11;;;;;;;13.98;7.57;;;;;;;18.05;75.59;101559.56;4941226;29;20354;-70
2023/06/09 08:20:36;;;;;;;13.48;8.00;;;;;;;18.10;75.15;101558.31;4945883;29;20218;-70
2023/06/09 08:23:02;;;;;;;15.55;8.32;;;;;;;18.16;75.55;101557.94;4953444;29;20046;-70
2023/06/09 08:25:27;;;;;;;17.25;8.25;;;;;;;18.25;75.12;101556.53;4947654;29;20235;-70
2023/06/09 08:27:52;;;;;;;14.27;8.63;;;;;;;18.32;74.48;101557.84;4941835;29;20458;-70
2023/06/09 08:30:18;;;;;;;11.63;8.43;;;;;;;18.41;74.40;101551.97;4943395;29;20035;-70
2023/06/09 08:32:44;;;;;;;18.50;8.98;;;;;;;18.49;74.76;101554.13;4948015;29;20390;-70
2023/06/09 08:35:10;;;;;;;13.50;8.18;;;;;;;18.57;74.45;101551.00;4951317;29;20051;-70
2023/06/09 08:37:36;;;;;;;18.50;8.63;;;;;;;18.63;74.93;101542.66;4947445;29;20381;-70
2023/06/09 08:40:04;;;;;;;18.50;8.68;;;;;;;18.74;74.86;101539.34;4945277;29;20052;-70
2023/06/09 08:42:31;;;;;;;13.93;7.93;;;;;;;18.78;74.32;101544.34;4949064;29;20039;-70
2023/06/09 08:45:04;;;;;;;15.45;8.45;;;;;;;18.90;73.91;101552.47;4950279;29;20046;-70
2023/06/09 08:47:32;;;;;;;15.02;8.30;;;;;;;18.92;72.54;101543.47;4945883;29;20294;-70
2023/06/09 08:49:59;;;;;;;12.77;8.75;;;;;;;18.97;73.03;101543.16;4937946;29;20365;-70
2023/06/09 08:52:25;;;;;;;12.30;8.52;;;;;;;19.05;73.08;101540.03;4937405;29;20357;-70
2023/06/09 08:54:52;;;;;;;14.65;8.80;;;;;;;19.11;73.28;101544.94;4947862;29;20039;-70
2023/06/09 08:57:18;;;;;;;16.00;8.70;;;;;;;19.16;72.74;101548.16;4944573;29;20043;-70
2023/06/09 08:59:47;;;;;;;18.70;8.40;;;;;;;19.26;73.01;101543.06;4935147;29;20043;-70
2023/06/09 09:02:13;;;;;;;22.27;9.40;;;;;;;19.34;72.05;101548.75;4932877;29;20115;-70
2023/06/09 09:04:38;;;;;;;16.02;8.43;;;;;;;19.42;71.74;101554.38;4929880;29;20351;-70
2023/06/09 09:07:08;;;;;;;16.73;9.07;;;;;;;19.46;70.92;101549.72;4930519;29;20043;-70
2023/06/09 09:09:34;;;;;;;24.17;8.93;;;;;;;19.49;71.03;101550.34;4929698;29;20286;-70
2023/06/09 09:12:02;;;;;;;12.52;8.50;;;;;;;19.55;71.33;101549.09;4919121;29;20043;-70
2023/06/09 09:14:28;;;;;;;;;;;;;;;19.63;71.69;101548.56;4916472;29;20043;-70
2023/06/09 09:16:53;;;;;;;15.88;8.63;;;;;;;19.71;71.32;101555.06;4917360;29;20103;-70
2023/06/09 09:19:29;;;;;;;13.73;8.65;;;;;;;19.77;72.02;101547.66;4920739;29;20067;-70
2023/06/09 09:22:06;;;;;;;12.75;8.43;;;;;;;19.85;72.34;101548.84;4916996;29;20266;-70
2023/06/09 09:24:31;;;;;;;14.40;9.15;;;;;;;19.91;71.32;101544.91;4925429;29;20255;-71
2023/06/09 09:26:57;;;;;;;13.88;8.32;;;;;;;19.95;70.68;101551.72;4920045;29;20036;-71
2023/06/09 09:29:27;;;;;;;17.50;9.68;;;;;;;20.04;70.36;101543.09;4921021;29;20070;-70
2023/06/09 09:31:58;;;;;;;20.38;9.95;;;;;;;20.07;69.82;101547.38;4910401;29;20031;-70
2023/06/09 09:34:26;;;;;;;17.35;9.50;;;;;;;20.16;70.34;101551.22;4917944;29;20239;-70
2023/06/09 09:36:58;;;;;;;16.75;8.90;;;;;;;20.21;69.92;101541.06;4919505;29;20040;-70
2023/06/09 09:39:23;;;;;;;17.02;8.45;;;;;;;20.23;69.85;101545.34;4920542;29;20078;-70
2023/06/09 09:42:07;;;;;;;14.82;9.02;;;;;;;20.33;70.53;101543.72;4919653;29;20362;-71
2023/06/09 09:44:40;;;;;;;14.93;8.43;;;;;;;20.43;70.62;101535.94;4912769;29;21336;-70
2023/06/09 09:47:12;;;;;;;18.23;10.07;;;;;;;20.50;68.75;101541.66;4919432;29;20044;-70
2023/06/09 09:49:58;;;;;;;17.23;9.27;;;;;;;20.55;68.22;101534.22;4920430;29;20323;-70
2023/06/09 09:52:24;;;;;;;17.73;9.23;;;;;;;20.59;68.46;101540.16;4917238;29;20052;-70
2023/06/09 09:54:52;;;;;;;21.23;10.18;;;;;;;20.62;68.35;101534.66;4914959;29;20102;-70
2023/06/09 09:57:19;;;;;;;13.45;9.63;;;;;;;20.67;68.81;101537.84;4914555;29;20067;-70
2023/06/09 09:59:45;;;;;;;15.07;9.50;;;;;;;20.73;68.58;101537.38;4919889;29;20095;-70
2023/06/09 10:02:20;;;;;;;14.18;9.25;;;;;;;20.82;69.14;101528.72;4917500;29;20083;-70
2023/06/09 10:04:47;;;;;;;16.80;9.48;;;;;;;20.89;68.82;101529.97;4919950;29;20362;-71
2023/06/09 10:07:15;;;;;;;15.45;9.98;;;;;;;20.99;68.71;101532.84;4919383;29;20051;-71
2023/06/09 10:09:41;;;;;;;13.65;8.80;;;;;;;21.10;68.33;101529.34;4916121;29;20115;-70
2023/06/09 10:12:08;;;;;;;16.52;9.90;;;;;;;21.18;67.46;101526.97;4914929;29;20028;-70
2023/06/09 10:14:34;;;;;;;13.70;9.00;;;;;;;21.22;66.97;101517.78;4921216;29;20335;-70
2023/06/09 10:17:01;;;;;;;18.63;9.52;;;;;;;21.33;66.91;101524.13;4926053;29;20044;-70
2023/06/09 10:19:27;;;;;;;13.77;10.18;;;;;;;21.41;67.33;101524.38;4920920;29;20039;-70
2023/06/09 10:21:52;;;;;;;15.35;10.05;;;;;;;21.52;66.78;101519.13;4928369;29;20056;-70
2023/06/09 10:24:21;;;;;;;18.27;9.60;;;;;;;21.54;66.60;101517.19;4912612;29;20220;-70
2023/06/09 10:39:40;;;;;;;19.73;9.70;;;;;;;21.99;66.62;101509.28;4938245;29;20051;-71
2023/06/09 10:42:10;;;;;;;14.95;9.77;;;;;;;22.02;66.33;101503.69;4926246;29;20245;-71
